Mc Kellar Sipes Regional Airport Jackson US
ICAO: KMKL
IATA: MKL
Category: Medium
Scheduled Services: Yes

Elevation: 434 ft
TransAlt. 18000 ft.

Airport Communications:
ASOS:119.325
MEMPHIS CNTR:134.65
CTAF:127.15
GND:120.9
ARNG OPS:41.5
JACKSON RDO:122.2
JACKSON TWR:127.15
UNICOM:122.95

KMKL Zoom In..

Runways:

(A) RW 02 length 6006 ft width 150 ft
ILS 109.10 / hdg 23

(B) RW 11 length 3538 ft width 100 ft
---- / hdg 113

(C) RW 20 length 6006 ft width 150 ft
---- / hdg 203

(D) RW 29 length 3538 ft width 100 ft
---- / hdg 293

Location; KMKL
Day. 20 / Time. 03.02 Zulu
* Altimeter: 29.90
* Temperature: 28° c. 82.4°f.
* Wind from: VRB° Speed 03 kn.
Dewpoint: 26° c.
Visibility: 10 Statute Miles.
Clouds: Scattered 5000 ft.
Conditions: Thunderstorm.

KMKL 200302Z AUTO VRB03KT 10SM TS SCT050 28/26 A2990 RMK AO2 LTG DSNT SE-W TSB0256 T02780256


Wind From VRB°
Speed 03 kn.

 
 
jpsmedia.com for Web Design worldairports.se 2018   terms of use